Meadowlands, Minnesota
Current Conditions -  °F | °C
As of 8:53 AM on Friday 24 Oct 2014 (Local Time) from KHIB Reporting Station
Haze Haze  
Wind Chill: 43°   Ceiling: Unl
Heat Index: 43°   Visibility: 6mi
Dew Point: 40°   Wind: 3mph
Humidity: 89%   Direction: 160°SSE
Pressure: 29.84"   Gusts: NA
Location:  47.07°N, 92.73°W
Report Text: KHIB 241353Z AUTO 16003KT 6SM BR CLR 06/04 A2984 RMK AO2 SLP116 T00610044
Loading
Personal Weather Stations






























Interactive Weather Map
Tropical Storm Tracking
New forecast layout! Learn more

10-Day Weather Forecast

Advertisements
Track Severe Weather on mobile